Time;durP1;ratioP1;P1;durP2;ratioP2;P2;SDS_P1;SDS_P2;PMS_P1;PMS_P2;Temp;Humidity;BMP_temperature;BMP_pressure;BME280_temperature;BME280_humidity;BME280_pressure;Samples;Min_cycle;Max_cycle;Signal;HPM_P1;HPM_P2
2022/05/22 00:01:57;;;;;;;4.47;2.10;;;;;;;;;;4405571;32;20160;-64
2022/05/22 00:04:23;;;;;;;4.28;1.90;;;;;;;;;;4405919;32;20152;-65
2022/05/22 00:06:50;;;;;;;3.30;1.85;;;;;;;;;;4405806;32;20066;-64
2022/05/22 00:09:17;;;;;;;2.50;2.00;;;;;;;;;;4405719;32;20077;-64
2022/05/22 00:11:44;;;;;;;3.42;1.70;;;;;;;;;;4406876;32;20089;-65
2022/05/22 00:14:11;;;;;;;9.45;2.12;;;;;;;;;;4406669;32;20083;-64
2022/05/22 00:16:46;;;;;;;2.47;1.70;;;;;;;;;;4405819;32;20162;-64
2022/05/22 00:19:25;;;;;;;2.97;1.85;;;;;;;;;;4406525;32;20073;-63
2022/05/22 00:21:52;;;;;;;5.03;1.92;;;;;;;;;;4405073;32;20073;-64
2022/05/22 00:24:21;;;;;;;3.90;1.90;;;;;;;;;;4406882;32;20587;-64
2022/05/22 00:26:48;;;;;;;3.03;1.48;;;;;;;;;;4406393;32;20153;-63
2022/05/22 00:29:16;;;;;;;3.22;1.65;;;;;;;;;;4405321;32;20173;-64
2022/05/22 00:31:42;;;;;;;4.53;1.92;;;;;;;;;;4404929;32;20116;-64
2022/05/22 00:34:10;;;;;;;2.33;1.65;;;;;;;;;;4405263;32;20136;-63
2022/05/22 00:36:36;;;;;;;3.05;1.60;;;;;;;;;;4406018;32;20080;-63
2022/05/22 00:39:03;;;;;;;2.58;1.85;;;;;;;;;;4406467;32;20097;-63
2022/05/22 00:41:30;;;;;;;5.25;2.10;;;;;;;;;;4405086;32;20512;-64
2022/05/22 00:43:58;;;;;;;3.42;2.00;;;;;;;;;;4392956;32;20076;-64
2022/05/22 00:46:27;;;;;;;5.47;2.03;;;;;;;;;;4392511;32;20074;-64
2022/05/22 00:49:01;;;;;;;3.03;1.75;;;;;;;;;;4405047;32;20184;-64
2022/05/22 00:51:54;;;;;;;2.67;1.60;;;;;;;;;;4405466;32;20085;-63
2022/05/22 00:54:25;;;;;;;2.53;1.73;;;;;;;;;;4392427;32;20073;-64
2022/05/22 00:56:59;;;;;;;3.83;1.77;;;;;;;;;;4405096;32;20524;-64
2022/05/22 00:59:29;;;;;;;3.58;1.70;;;;;;;;;;4405326;32;20165;-64
2022/05/22 01:01:58;;;;;;;2.67;1.90;;;;;;;;;;4410189;32;20145;-66
2022/05/22 01:04:27;;;;;;;2.60;1.80;;;;;;;;;;4413546;32;20603;-64
2022/05/22 01:06:54;;;;;;;2.55;1.60;;;;;;;;;;4405855;32;20080;-65
2022/05/22 01:09:21;;;;;;;2.03;1.50;;;;;;;;;;4406385;32;20080;-63
2022/05/22 01:11:49;;;;;;;2.80;1.77;;;;;;;;;;4392832;32;20074;-64
2022/05/22 01:14:21;;;;;;;2.72;1.73;;;;;;;;;;4392335;32;20497;-64
2022/05/22 01:16:49;;;;;;;2.55;1.65;;;;;;;;;;4393368;32;20436;-63
2022/05/22 01:19:18;;;;;;;2.42;1.83;;;;;;;;;;4407349;32;20090;-64
2022/05/22 01:22:02;;;;;;;2.80;1.50;;;;;;;;;;4395434;32;20149;-65
2022/05/22 01:24:29;;;;;;;2.40;1.52;;;;;;;;;;4420768;32;20072;-64
2022/05/22 01:26:58;;;;;;;2.70;1.70;;;;;;;;;;4408095;32;20081;-64
2022/05/22 01:29:25;;;;;;;4.37;1.70;;;;;;;;;;4419135;32;20100;-64
2022/05/22 01:31:51;;;;;;;2.92;1.80;;;;;;;;;;4420438;32;20603;-65
2022/05/22 01:34:18;;;;;;;2.67;1.55;;;;;;;;;;4407107;32;20093;-64
2022/05/22 01:36:45;;;;;;;3.55;1.58;;;;;;;;;;4413415;32;20503;-65
2022/05/22 01:39:11;;;;;;;2.40;1.42;;;;;;;;;;4407418;32;20089;-64
2022/05/22 01:41:38;;;;;;;3.08;1.50;;;;;;;;;;4407752;32;20149;-62
2022/05/22 01:44:06;;;;;;;2.35;1.65;;;;;;;;;;4408866;32;20066;-64
2022/05/22 01:46:32;;;;;;;1.67;1.40;;;;;;;;;;4407482;32;20069;-65
2022/05/22 01:48:59;;;;;;;2.92;1.80;;;;;;;;;;4409088;32;20141;-64
2022/05/22 01:51:27;;;;;;;2.08;1.67;;;;;;;;;;4394809;32;20089;-63
2022/05/22 01:53:54;;;;;;;2.65;1.80;;;;;;;;;;4407430;32;20156;-63
2022/05/22 01:56:21;;;;;;;3.03;1.80;;;;;;;;;;4407324;32;20074;-65
2022/05/22 01:58:47;;;;;;;2.85;1.90;;;;;;;;;;4407271;32;20074;-63
2022/05/22 02:01:14;;;;;;;3.03;1.75;;;;;;;;;;4407702;32;20173;-63
2022/05/22 02:03:41;;;;;;;2.62;1.75;;;;;;;;;;4407432;32;20097;-63
2022/05/22 02:06:07;;;;;;;2.47;1.60;;;;;;;;;;4407815;32;20096;-63
2022/05/22 02:08:34;;;;;;;4.80;1.80;;;;;;;;;;4408465;32;20441;-62
2022/05/22 02:11:03;;;;;;;2.08;1.60;;;;;;;;;;4408516;32;20096;-62
2022/05/22 02:13:32;;;;;;;5.05;2.12;;;;;;;;;;4407063;32;20174;-64
2022/05/22 02:15:59;;;;;;;1.83;1.60;;;;;;;;;;4394758;32;20535;-63
2022/05/22 02:18:26;;;;;;;3.22;2.05;;;;;;;;;;4408290;32;20088;-64
2022/05/22 02:20:52;;;;;;;3.37;2.05;;;;;;;;;;4408478;32;20070;-64
2022/05/22 02:23:20;;;;;;;1.62;1.40;;;;;;;;;;4394302;32;20064;-63
2022/05/22 02:25:50;;;;;;;2.33;1.77;;;;;;;;;;4406815;32;20169;-63
2022/05/22 02:28:17;;;;;;;1.70;1.58;;;;;;;;;;4382102;32;20168;-63
2022/05/22 02:30:47;;;;;;;2.30;1.60;;;;;;;;;;4394329;32;20154;-64
2022/05/22 02:33:14;;;;;;;3.30;1.90;;;;;;;;;;4407128;32;20513;-64
2022/05/22 02:35:41;;;;;;;2.95;1.80;;;;;;;;;;4408452;32;20421;-65
2022/05/22 02:38:08;;;;;;;4.45;2.00;;;;;;;;;;4406444;32;20505;-63
2022/05/22 02:40:35;;;;;;;2.83;2.03;;;;;;;;;;4393844;32;20081;-64
2022/05/22 02:43:22;;;;;;;1.85;1.60;;;;;;;;;;4396479;32;20532;-64
2022/05/22 02:45:48;;;;;;;3.10;1.80;;;;;;;;;;4407837;32;20467;-64
2022/05/22 02:48:15;;;;;;;3.47;2.30;;;;;;;;;;4381517;32;20099;-64
2022/05/22 02:50:44;;;;;;;2.70;2.00;;;;;;;;;;4408035;32;20092;-64
2022/05/22 02:53:11;;;;;;;2.92;1.83;;;;;;;;;;4407119;32;20092;-65
2022/05/22 02:55:40;;;;;;;4.90;2.03;;;;;;;;;;4393790;32;20162;-64
2022/05/22 02:58:06;;;;;;;4.75;2.10;;;;;;;;;;4408155;32;20140;-63
2022/05/22 03:00:33;;;;;;;10.07;3.33;;;;;;;;;;4406528;32;20157;-65
2022/05/22 03:03:00;;;;;;;4.35;1.90;;;;;;;;;;4407912;32;20081;-65
2022/05/22 03:06:37;;;;;;;4.53;2.03;;;;;;;;;;4407646;32;20209;-63
2022/05/22 03:08:14;;;;;;;2.87;1.80;;;;;;;;;;4406960;32;20500;-64
2022/05/22 03:10:41;;;;;;;2.55;1.65;;;;;;;;;;4406273;32;20082;-63
2022/05/22 03:13:08;;;;;;;2.40;1.80;;;;;;;;;;4393631;32;20081;-64
2022/05/22 03:15:35;;;;;;;3.25;2.00;;;;;;;;;;4406254;32;20534;-64
2022/05/22 03:18:01;;;;;;;3.67;2.10;;;;;;;;;;4407083;32;20089;-64
2022/05/22 03:20:30;;;;;;;2.28;1.60;;;;;;;;;;4408201;32;20061;-63
2022/05/22 03:22:58;;;;;;;3.20;1.60;;;;;;;;;;4405947;32;20104;-63
2022/05/22 03:25:26;;;;;;;4.22;1.92;;;;;;;;;;4393799;32;20154;-64
2022/05/22 03:30:33;;;;;;;3.17;1.90;;;;;;;;;;3812345;37;20075;-64
2022/05/22 03:32:59;;;;;;;2.22;1.65;;;;;;;;;;4400058;32;20205;-65
2022/05/22 03:35:26;;;;;;;6.82;1.92;;;;;;;;;;4398756;32;20081;-64
2022/05/22 03:37:53;;;;;;;4.15;1.15;;;;;;;;;;4397426;32;20147;-64
2022/05/22 03:40:19;;;;;;;3.20;1.45;;;;;;;;;;4384018;32;20153;-63
2022/05/22 03:42:46;;;;;;;2.90;1.42;;;;;;;;;;4396242;32;20089;-64
2022/05/22 03:45:13;;;;;;;3.35;1.85;;;;;;;;;;4390591;32;20085;-63
2022/05/22 03:47:40;;;;;;;2.75;1.65;;;;;;;;;;4377092;32;20153;-63
2022/05/22 03:50:11;;;;;;;3.35;1.25;;;;;;;;;;4391265;32;20189;-65
2022/05/22 03:52:47;;;;;;;2.65;1.48;;;;;;;;;;4387715;32;20074;-63
2022/05/22 03:55:14;;;;;;;2.60;1.70;;;;;;;;;;4387788;32;20085;-63
2022/05/22 03:57:44;;;;;;;2.45;1.40;;;;;;;;;;4375513;32;20094;-65
2022/05/22 04:00:12;;;;;;;1.87;1.15;;;;;;;;;;4387901;32;20088;-64
2022/05/22 04:02:39;;;;;;;5.10;1.70;;;;;;;;;;4387989;32;20089;-64
2022/05/22 04:05:08;;;;;;;2.70;1.30;;;;;;;;;;4389134;32;20497;-63
2022/05/22 04:07:39;;;;;;;1.87;1.50;;;;;;;;;;4375455;32;20070;-63
2022/05/22 04:10:07;;;;;;;1.92;1.05;;;;;;;;;;4387386;32;20113;-65
2022/05/22 04:12:35;;;;;;;3.87;1.58;;;;;;;;;;4374968;32;20090;-64
2022/05/22 04:15:04;;;;;;;2.08;1.45;;;;;;;;;;4388757;32;20066;-65
2022/05/22 04:17:30;;;;;;;3.12;1.60;;;;;;;;;;4388951;32;20088;-63
2022/05/22 04:19:57;;;;;;;1.40;1.15;;;;;;;;;;4387279;32;20074;-63
2022/05/22 04:22:23;;;;;;;2.75;1.83;;;;;;;;;;4387832;32;20100;-63
2022/05/22 04:27:38;;;;;;;3.25;1.37;;;;;;;;;;4388862;32;20174;-65
2022/05/22 04:30:06;;;;;;;2.47;1.30;;;;;;;;;;4374717;32;20072;-64
2022/05/22 04:32:32;;;;;;;1.65;1.30;;;;;;;;;;4387177;32;20070;-64
2022/05/22 04:34:59;;;;;;;4.47;1.37;;;;;;;;;;4388628;32;20081;-64
2022/05/22 04:37:26;;;;;;;2.47;1.37;;;;;;;;;;4387051;32;20591;-64
2022/05/22 04:39:52;;;;;;;2.22;1.33;;;;;;;;;;4385810;32;20186;-64
2022/05/22 04:42:19;;;;;;;2.25;1.25;;;;;;;;;;4376718;32;20514;-64
2022/05/22 04:44:46;;;;;;;1.83;1.23;;;;;;;;;;4377612;32;20088;-63
2022/05/22 04:47:12;;;;;;;1.60;1.05;;;;;;;;;;4364796;32;20074;-64
2022/05/22 04:49:39;;;;;;;1.55;1.20;;;;;;;;;;4364473;32;20583;-64
2022/05/22 04:52:06;;;;;;;3.92;1.30;;;;;;;;;;4378686;32;20149;-65
2022/05/22 04:54:33;;;;;;;1.75;1.27;;;;;;;;;;4364369;32;20595;-63
2022/05/22 04:57:01;;;;;;;1.40;1.02;;;;;;;;;;4365229;32;20074;-65
2022/05/22 04:59:28;;;;;;;1.55;1.10;;;;;;;;;;4378182;32;20149;-64
2022/05/22 05:01:54;;;;;;;1.37;1.08;;;;;;;;;;4378045;32;20146;-63
2022/05/22 05:04:21;;;;;;;2.47;1.40;;;;;;;;;;4378205;32;20152;-65
2022/05/22 05:06:48;;;;;;;2.83;1.40;;;;;;;;;;4377935;32;20082;-64
2022/05/22 05:09:14;;;;;;;2.72;1.50;;;;;;;;;;4376523;32;20062;-63
2022/05/22 05:11:41;;;;;;;1.60;1.37;;;;;;;;;;4378047;32;20101;-64
2022/05/22 05:14:08;;;;;;;2.15;1.70;;;;;;;;;;4376482;32;20073;-65
2022/05/22 05:16:34;;;;;;;2.70;1.10;;;;;;;;;;4376417;32;20085;-63
2022/05/22 05:19:01;;;;;;;1.77;1.30;;;;;;;;;;4377775;32;20145;-64
2022/05/22 05:21:28;;;;;;;5.60;1.58;;;;;;;;;;4378309;32;20185;-64
2022/05/22 05:23:58;;;;;;;2.35;1.48;;;;;;;;;;4376834;32;20070;-65
2022/05/22 05:26:25;;;;;;;1.80;1.20;;;;;;;;;;4376646;32;20086;-64
2022/05/22 05:28:51;;;;;;;2.70;1.67;;;;;;;;;;4377250;32;20089;-63
2022/05/22 05:31:18;;;;;;;3.10;1.70;;;;;;;;;;4376616;32;20059;-64
2022/05/22 05:33:44;;;;;;;4.43;1.70;;;;;;;;;;4377736;32;20150;-64
2022/05/22 05:36:12;;;;;;;3.85;1.75;;;;;;;;;;4365183;32;20453;-63
2022/05/22 05:38:39;;;;;;;4.55;2.40;;;;;;;;;;4376676;32;20066;-64
2022/05/22 05:41:05;;;;;;;5.70;2.60;;;;;;;;;;4378565;32;20078;-64
2022/05/22 05:43:32;;;;;;;4.72;2.40;;;;;;;;;;4364766;32;20153;-63
2022/05/22 05:45:59;;;;;;;3.55;2.33;;;;;;;;;;4377983;32;20078;-64
2022/05/22 05:48:25;;;;;;;3.30;2.12;;;;;;;;;;4376015;32;20590;-64
2022/05/22 05:50:53;;;;;;;6.43;2.67;;;;;;;;;;4351657;32;20090;-63
2022/05/22 05:53:20;;;;;;;4.97;2.78;;;;;;;;;;4375453;32;20097;-63
2022/05/22 05:55:50;;;;;;;4.43;2.75;;;;;;;;;;4376135;32;20169;-63
2022/05/22 05:58:17;;;;;;;3.33;2.17;;;;;;;;;;4377766;32;20077;-63
2022/05/22 06:00:44;;;;;;;3.55;2.50;;;;;;;;;;4364863;32;20078;-63
2022/05/22 06:03:11;;;;;;;6.50;2.85;;;;;;;;;;4379676;32;20089;-64
2022/05/22 06:05:40;;;;;;;4.65;3.00;;;;;;;;;;4381777;32;20085;-63
2022/05/22 06:08:07;;;;;;;5.12;3.33;;;;;;;;;;4364746;32;20141;-63
2022/05/22 06:10:33;;;;;;;4.15;3.05;;;;;;;;;;4377455;32;20143;-64
2022/05/22 06:13:00;;;;;;;4.40;3.12;;;;;;;;;;4363300;32;20146;-64
2022/05/22 06:15:27;;;;;;;4.80;2.60;;;;;;;;;;4376896;32;20145;-64
2022/05/22 06:17:56;;;;;;;4.97;2.60;;;;;;;;;;4375971;32;20074;-64
2022/05/22 06:20:23;;;;;;;5.97;3.40;;;;;;;;;;4377010;32;20086;-62
2022/05/22 06:22:49;;;;;;;3.78;2.30;;;;;;;;;;4375897;32;20066;-64
2022/05/22 06:25:17;;;;;;;4.10;2.70;;;;;;;;;;4377254;32;20177;-64
2022/05/22 06:27:44;;;;;;;6.28;2.95;;;;;;;;;;4376141;32;20077;-63
2022/05/22 06:30:13;;;;;;;3.92;2.62;;;;;;;;;;4363339;32;20519;-63
2022/05/22 06:32:43;;;;;;;7.07;3.08;;;;;;;;;;4363840;32;20085;-63
2022/05/22 06:35:12;;;;;;;4.60;2.70;;;;;;;;;;4375604;32;20066;-63
2022/05/22 06:37:39;;;;;;;5.65;2.90;;;;;;;;;;4375683;32;20160;-64
2022/05/22 06:40:07;;;;;;;3.65;2.65;;;;;;;;;;4364872;32;20175;-64
2022/05/22 06:42:39;;;;;;;5.22;2.60;;;;;;;;;;4363068;32;20186;-63
2022/05/22 06:45:08;;;;;;;3.60;2.60;;;;;;;;;;4376732;32;20187;-62
2022/05/22 06:47:35;;;;;;;5.78;2.58;;;;;;;;;;4375811;32;20154;-63
2022/05/22 06:50:06;;;;;;;5.70;2.58;;;;;;;;;;4363470;32;20531;-62
2022/05/22 06:52:33;;;;;;;4.32;2.45;;;;;;;;;;4362906;32;20446;-63
2022/05/22 06:55:00;;;;;;;4.12;2.20;;;;;;;;;;4350690;32;20153;-63
2022/05/22 06:57:28;;;;;;;3.45;2.30;;;;;;;;;;4363363;32;20169;-64
2022/05/22 06:59:56;;;;;;;3.28;2.10;;;;;;;;;;4376876;32;20093;-64
2022/05/22 07:02:24;;;;;;;2.87;2.10;;;;;;;;;;4375050;32;20161;-63
2022/05/22 07:04:51;;;;;;;4.93;2.50;;;;;;;;;;4362436;32;20156;-62
2022/05/22 07:07:17;;;;;;;3.28;2.37;;;;;;;;;;4362596;32;20081;-63
2022/05/22 07:09:44;;;;;;;2.80;2.03;;;;;;;;;;4375780;32;20101;-63
2022/05/22 07:12:12;;;;;;;3.87;2.40;;;;;;;;;;4377344;32;20096;-62
2022/05/22 07:14:39;;;;;;;4.78;2.30;;;;;;;;;;4366923;32;20106;-62
2022/05/22 07:17:07;;;;;;;4.78;2.72;;;;;;;;;;4377039;32;20165;-64
2022/05/22 07:19:37;;;;;;;4.70;3.00;;;;;;;;;;4362636;32;20106;-63
2022/05/22 07:22:06;;;;;;;4.70;2.70;;;;;;;;;;4377367;32;20080;-63
2022/05/22 07:24:33;;;;;;;4.37;2.60;;;;;;;;;;4376436;32;20077;-63
2022/05/22 07:27:00;;;;;;;3.78;2.10;;;;;;;;;;4362813;32;20147;-63
2022/05/22 07:29:28;;;;;;;4.37;2.53;;;;;;;;;;4362038;32;20604;-63
2022/05/22 07:31:56;;;;;;;3.85;2.15;;;;;;;;;;4374656;32;20104;-62
2022/05/22 07:34:26;;;;;;;2.62;2.05;;;;;;;;;;4376336;32;20089;-62
2022/05/22 07:36:57;;;;;;;3.05;2.20;;;;;;;;;;4374917;32;20152;-62
2022/05/22 07:39:24;;;;;;;3.20;2.05;;;;;;;;;;4362123;32;20545;-63
2022/05/22 07:41:51;;;;;;;2.97;1.98;;;;;;;;;;4374961;32;20092;-62
2022/05/22 07:44:18;;;;;;;2.92;1.83;;;;;;;;;;4362102;32;20548;-64
2022/05/22 07:46:45;;;;;;;5.72;2.42;;;;;;;;;;4362820;32;20106;-64
2022/05/22 07:51:58;;;;;;;1.58;0.95;;;;;;;;;;4376881;32;20084;-64
2022/05/22 07:54:24;;;;;;;2.08;1.65;;;;;;;;;;4374647;32;20143;-63
2022/05/22 07:56:51;;;;;;;2.53;1.70;;;;;;;;;;4374603;32;20090;-63
2022/05/22 07:59:18;;;;;;;1.52;1.17;;;;;;;;;;4374870;32;20109;-64
2022/05/22 08:01:44;;;;;;;2.87;1.40;;;;;;;;;;4376155;32;20448;-63
2022/05/22 08:04:11;;;;;;;4.50;1.45;;;;;;;;;;4362018;32;20150;-64
2022/05/22 08:06:37;;;;;;;2.42;1.73;;;;;;;;;;4362175;32;20109;-64
2022/05/22 08:09:04;;;;;;;3.67;1.70;;;;;;;;;;4374529;32;20177;-64
2022/05/22 08:11:31;;;;;;;2.67;1.25;;;;;;;;;;4376128;32;20097;-64
2022/05/22 08:13:57;;;;;;;3.25;1.58;;;;;;;;;;4374533;32;20112;-63
2022/05/22 08:16:24;;;;;;;2.17;1.60;;;;;;;;;;4376221;32;20079;-64
2022/05/22 08:18:51;;;;;;;2.55;1.50;;;;;;;;;;4379074;32;20078;-64
2022/05/22 08:21:18;;;;;;;3.03;1.50;;;;;;;;;;4377613;32;20117;-64
2022/05/22 08:23:45;;;;;;;3.75;2.28;;;;;;;;;;4378864;32;20154;-64
2022/05/22 08:26:11;;;;;;;4.10;2.37;;;;;;;;;;4364704;32;20241;-64
2022/05/22 08:28:38;;;;;;;3.72;2.30;;;;;;;;;;4378554;32;20161;-65
2022/05/22 08:31:06;;;;;;;4.62;2.65;;;;;;;;;;4365412;32;20069;-64
2022/05/22 08:33:34;;;;;;;2.90;1.83;;;;;;;;;;4380308;32;20515;-64
2022/05/22 08:36:01;;;;;;;4.40;2.10;;;;;;;;;;4383974;32;20086;-65
2022/05/22 08:38:29;;;;;;;4.55;2.22;;;;;;;;;;4379758;32;20138;-63
2022/05/22 08:41:01;;;;;;;3.53;2.30;;;;;;;;;;4377247;32;20497;-63
2022/05/22 08:43:44;;;;;;;4.12;2.25;;;;;;;;;;4377162;32;20592;-65
2022/05/22 08:46:18;;;;;;;5.32;2.40;;;;;;;;;;4352633;32;20183;-63
2022/05/22 08:48:53;;;;;;;3.30;1.77;;;;;;;;;;4378469;32;20464;-64
2022/05/22 08:51:34;;;;;;;2.20;1.20;;;;;;;;;;4377212;32;20149;-64
2022/05/22 08:54:26;;;;;;;2.80;1.70;;;;;;;;;;4377034;32;20600;-64
2022/05/22 08:59:39;;;;;;;3.05;1.50;;;;;;;;;;4377606;32;20154;-63
2022/05/22 09:02:12;;;;;;;4.12;1.50;;;;;;;;;;4376701;32;20232;-63
2022/05/22 09:04:40;;;;;;;1.95;1.58;;;;;;;;;;4364337;32;20080;-64
2022/05/22 09:07:21;;;;;;;2.83;1.65;;;;;;;;;;4376777;32;20146;-63
2022/05/22 09:10:04;;;;;;;4.60;2.70;;;;;;;;;;4377017;32;20073;-64
2022/05/22 09:13:12;;;;;;;3.80;2.22;;;;;;;;;;4376404;32;20089;-62
2022/05/22 09:15:38;;;;;;;;;;;;;;;;;;4377284;32;20082;-64
2022/05/22 09:18:27;;;;;;;3.60;2.28;;;;;;;;;;4378075;32;20396;-62
2022/05/22 09:20:57;;;;;;;4.05;2.03;;;;;;;;;;4376622;32;20078;-63
2022/05/22 09:23:50;;;;;;;4.03;2.50;;;;;;;;;;4363998;32;20142;-63
2022/05/22 09:26:42;;;;;;;3.72;2.33;;;;;;;;;;4376999;32;20093;-64
2022/05/22 09:29:17;;;;;;;4.47;2.30;;;;;;;;;;4377580;32;20082;-65
2022/05/22 09:31:59;;;;;;;2.80;1.60;;;;;;;;;;4377515;32;20149;-64
2022/05/22 09:34:43;;;;;;;3.25;2.20;;;;;;;;;;4377995;32;20085;-63
2022/05/22 09:37:31;;;;;;;4.80;2.12;;;;;;;;;;4378314;32;20126;-63
2022/05/22 09:40:28;;;;;;;2.85;1.92;;;;;;;;;;4376916;32;20109;-64
2022/05/22 09:43:01;;;;;;;;;;;;;;;;;;4378311;32;20078;-63
2022/05/22 09:45:39;;;;;;;4.75;2.10;;;;;;;;;;4376263;32;19976;-64
2022/05/22 09:48:44;;;;;;;2.53;2.03;;;;;;;;;;4377816;32;20079;-64
2022/05/22 09:51:22;;;;;;;2.50;1.73;;;;;;;;;;4377538;32;20073;-64
2022/05/22 09:54:07;;;;;;;2.58;1.80;;;;;;;;;;4377999;32;20579;-64
2022/05/22 09:56:55;;;;;;;1.92;1.67;;;;;;;;;;4376300;32;20078;-65
2022/05/22 09:59:43;;;;;;;2.78;1.95;;;;;;;;;;4377633;32;20075;-62
2022/05/22 10:02:39;;;;;;;3.40;2.15;;;;;;;;;;4379639;32;20080;-64
2022/05/22 10:05:41;;;;;;;3.00;1.92;;;;;;;;;;4380261;32;20078;-63
2022/05/22 10:08:40;;;;;;;3.42;1.65;;;;;;;;;;4315758;32;20074;-63
2022/05/22 10:11:27;;;;;;;2.30;1.58;;;;;;;;;;4377151;32;20077;-64
2022/05/22 10:13:53;;;;;;;2.60;1.92;;;;;;;;;;4383585;32;20134;-63
2022/05/22 10:16:34;;;;;;;7.87;2.20;;;;;;;;;;4381828;32;20070;-64
2022/05/22 10:19:33;;;;;;;3.37;1.60;;;;;;;;;;4383988;32;20155;-64
2022/05/22 10:22:05;;;;;;;2.62;1.60;;;;;;;;;;4350838;32;20504;-64
2022/05/22 10:25:21;;;;;;;3.47;2.00;;;;;;;;;;4362958;32;20473;-64
2022/05/22 10:28:00;;;;;;;5.03;1.67;;;;;;;;;;4331020;32;20082;-64
2022/05/22 10:30:33;;;;;;;2.12;1.67;;;;;;;;;;4375014;32;20082;-63
2022/05/22 10:32:59;;;;;;;3.15;1.87;;;;;;;;;;4376716;32;20085;-65
2022/05/22 10:35:42;;;;;;;2.95;1.73;;;;;;;;;;4377438;32;20109;-64
2022/05/22 10:38:23;;;;;;;3.22;1.98;;;;;;;;;;4350249;32;20062;-64
2022/05/22 10:43:46;;;;;;;3.37;1.95;;;;;;;;;;4377166;32;20062;-64
2022/05/22 10:46:13;;;;;;;3.65;2.17;;;;;;;;;;4375439;32;20100;-64
2022/05/22 10:48:55;;;;;;;2.15;1.20;;;;;;;;;;4377053;32;20153;-63
2022/05/22 10:51:27;;;;;;;1.62;1.42;;;;;;;;;;4350734;32;20097;-65
2022/05/22 10:53:59;;;;;;;2.97;1.60;;;;;;;;;;4376631;32;20157;-64
2022/05/22 10:56:28;;;;;;;1.85;1.50;;;;;;;;;;4351451;32;20152;-63
2022/05/22 10:58:57;;;;;;;4.00;2.00;;;;;;;;;;4376378;32;20082;-63
2022/05/22 11:01:32;;;;;;;7.37;2.30;;;;;;;;;;4377531;32;20104;-63
2022/05/22 11:04:12;;;;;;;3.62;2.67;;;;;;;;;;4375667;32;20141;-64
2022/05/22 11:06:53;;;;;;;3.28;1.95;;;;;;;;;;4376976;32;20098;-63
2022/05/22 11:09:25;;;;;;;4.80;2.10;;;;;;;;;;4379799;32;20162;-65
2022/05/22 11:11:52;;;;;;;3.67;2.28;;;;;;;;;;4383860;32;20082;-68
2022/05/22 11:16:56;;;;;;;4.80;2.43;;;;;;;;;;3861227;37;20153;-63
2022/05/22 11:19:24;;;;;;;3.08;2.00;;;;;;;;;;4408482;32;20187;-63
2022/05/22 11:22:03;;;;;;;2.55;1.55;;;;;;;;;;4420336;32;20104;-64
2022/05/22 11:24:48;;;;;;;3.70;2.37;;;;;;;;;;4420280;32;20070;-65
2022/05/22 11:27:14;;;;;;;3.75;2.40;;;;;;;;;;4418567;32;20149;-63
2022/05/22 11:30:01;;;;;;;3.72;2.00;;;;;;;;;;4420424;32;20069;-64
2022/05/22 11:32:55;;;;;;;3.75;2.00;;;;;;;;;;4418463;32;20101;-63
2022/05/22 11:35:32;;;;;;;3.33;1.87;;;;;;;;;;4419773;32;20073;-64
2022/05/22 11:38:01;;;;;;;4.80;2.17;;;;;;;;;;4417986;32;20692;-64
2022/05/22 11:40:52;;;;;;;3.40;1.90;;;;;;;;;;4419890;32;20064;-64
2022/05/22 11:43:31;;;;;;;2.67;1.85;;;;;;;;;;4405622;32;20076;-64
2022/05/22 11:46:21;;;;;;;2.67;1.80;;;;;;;;;;4419552;32;20080;-64
2022/05/22 11:49:06;;;;;;;3.95;2.05;;;;;;;;;;4419457;32;20074;-63
2022/05/22 11:51:47;;;;;;;3.20;2.08;;;;;;;;;;4420515;32;20066;-63
2022/05/22 11:54:36;;;;;;;2.75;2.00;;;;;;;;;;4418137;32;20171;-64
2022/05/22 11:57:10;;;;;;;2.72;1.90;;;;;;;;;;4419850;32;20180;-65
2022/05/22 11:59:43;;;;;;;3.67;1.70;;;;;;;;;;4419401;32;20184;-64
2022/05/22 12:02:31;;;;;;;3.28;2.05;;;;;;;;;;4419397;32;20168;-64
2022/05/22 12:05:30;;;;;;;4.55;2.33;;;;;;;;;;4419478;32;20072;-63
2022/05/22 12:08:00;;;;;;;3.10;1.85;;;;;;;;;;4418223;32;20481;-62
2022/05/22 12:10:32;;;;;;;3.40;2.40;;;;;;;;;;4417973;32;20573;-63
2022/05/22 12:13:33;;;;;;;3.58;2.00;;;;;;;;;;4405805;32;20149;-63
2022/05/22 12:16:01;;;;;;;2.50;2.03;;;;;;;;;;4404625;32;20077;-63
2022/05/22 12:18:38;;;;;;;2.75;2.05;;;;;;;;;;4404956;32;20065;-65
2022/05/22 12:21:34;;;;;;;3.30;2.10;;;;;;;;;;4418033;32;20156;-63
2022/05/22 12:24:26;;;;;;;4.10;2.00;;;;;;;;;;4417666;32;20156;-64
2022/05/22 12:26:53;;;;;;;4.43;2.30;;;;;;;;;;4415010;32;20068;-64
2022/05/22 12:29:27;;;;;;;2.58;1.95;;;;;;;;;;4407948;32;20089;-64
2022/05/22 12:31:56;;;;;;;3.10;1.80;;;;;;;;;;4407485;32;20098;-63
2022/05/22 12:34:34;;;;;;;4.43;2.20;;;;;;;;;;4407194;32;20440;-64
2022/05/22 12:37:02;;;;;;;2.45;1.75;;;;;;;;;;4407018;32;20511;-62
2022/05/22 12:39:33;;;;;;;2.67;1.92;;;;;;;;;;4408444;32;20520;-64
2022/05/22 12:42:17;;;;;;;3.45;1.90;;;;;;;;;;4406928;32;20086;-64
2022/05/22 12:44:44;;;;;;;4.87;1.67;;;;;;;;;;4409038;32;20530;-63
2022/05/22 12:47:14;;;;;;;3.58;1.90;;;;;;;;;;4407793;32;20083;-63
2022/05/22 12:49:58;;;;;;;2.75;1.65;;;;;;;;;;4406782;32;20503;-63
2022/05/22 12:52:27;;;;;;;2.80;2.05;;;;;;;;;;4407722;32;20073;-64
2022/05/22 12:54:59;;;;;;;2.35;1.90;;;;;;;;;;4408279;32;20073;-63
2022/05/22 12:57:26;;;;;;;3.50;1.90;;;;;;;;;;4381847;32;20073;-64
2022/05/22 13:00:13;;;;;;;3.10;2.20;;;;;;;;;;4406615;32;20158;-63
2022/05/22 13:02:42;;;;;;;2.87;1.90;;;;;;;;;;4406565;32;20539;-64
2022/05/22 13:05:30;;;;;;;4.30;2.10;;;;;;;;;;4406607;32;20080;-63
2022/05/22 13:07:57;;;;;;;2.08;1.58;;;;;;;;;;4407147;32;20436;-63
2022/05/22 13:10:34;;;;;;;2.70;1.90;;;;;;;;;;4394293;32;20466;-63
2022/05/22 13:13:07;;;;;;;2.75;1.92;;;;;;;;;;4394544;32;20164;-64
2022/05/22 13:15:35;;;;;;;2.65;1.80;;;;;;;;;;4406836;32;20097;-63
2022/05/22 13:18:12;;;;;;;2.75;1.85;;;;;;;;;;4406596;32;20077;-63
2022/05/22 13:20:38;;;;;;;1.98;1.58;;;;;;;;;;4408612;32;20081;-63
2022/05/22 13:23:13;;;;;;;2.42;1.75;;;;;;;;;;4408570;32;20077;-63
2022/05/22 13:25:55;;;;;;;3.83;2.00;;;;;;;;;;4406285;32;20088;-63
2022/05/22 13:28:30;;;;;;;3.67;2.08;;;;;;;;;;4408205;32;20085;-63
2022/05/22 13:31:06;;;;;;;3.60;1.70;;;;;;;;;;4408021;32;20101;-64
2022/05/22 13:33:40;;;;;;;3.03;1.77;;;;;;;;;;4406745;32;20089;-64
2022/05/22 13:36:25;;;;;;;2.97;2.10;;;;;;;;;;4406506;32;20079;-63
2022/05/22 13:39:00;;;;;;;3.90;1.70;;;;;;;;;;4393581;32;20460;-64
2022/05/22 13:41:26;;;;;;;3.47;2.12;;;;;;;;;;4408058;32;20151;-64
2022/05/22 13:44:34;;;;;;;2.35;1.50;;;;;;;;;;4407461;32;20065;-64
2022/05/22 13:47:33;;;;;;;2.08;1.52;;;;;;;;;;4406182;32;20072;-63
2022/05/22 13:53:31;;;;;;;2.25;1.80;;;;;;;;;;4411622;32;20085;-64
2022/05/22 13:55:57;;;;;;;3.70;1.90;;;;;;;;;;4407696;32;20152;-63
2022/05/22 13:58:35;;;;;;;2.35;1.75;;;;;;;;;;4406275;32;20157;-63
2022/05/22 14:01:22;;;;;;;3.72;2.12;;;;;;;;;;4407693;32;20137;-65
2022/05/22 14:04:00;;;;;;;3.10;1.90;;;;;;;;;;4394199;32;20153;-63
2022/05/22 14:06:34;;;;;;;2.65;1.70;;;;;;;;;;4405933;32;20512;-63
2022/05/22 14:09:03;;;;;;;1.45;1.27;;;;;;;;;;4393238;32;20096;-63
2022/05/22 14:11:34;;;;;;;4.78;2.20;;;;;;;;;;4393201;32;20099;-63
2022/05/22 14:14:01;;;;;;;2.50;1.90;;;;;;;;;;4406897;32;20474;-62
2022/05/22 14:16:37;;;;;;;3.65;1.87;;;;;;;;;;4405892;32;20085;-63
2022/05/22 14:19:05;;;;;;;2.55;1.77;;;;;;;;;;4380589;32;20068;-66
2022/05/22 14:21:38;;;;;;;2.22;1.55;;;;;;;;;;4393210;32;20081;-64
2022/05/22 14:27:31;;;;;;;1.62;1.50;;;;;;;;;;4407431;32;20168;-63
2022/05/22 14:30:17;;;;;;;2.15;1.42;;;;;;;;;;4380843;32;20084;-64
2022/05/22 14:33:09;;;;;;;3.35;1.50;;;;;;;;;;4407171;32;20144;-63
2022/05/22 14:35:51;;;;;;;3.10;2.00;;;;;;;;;;4405692;32;20085;-62
2022/05/22 14:38:25;;;;;;;1.73;1.33;;;;;;;;;;4380815;32;20072;-62
2022/05/22 14:40:54;;;;;;;1.95;1.30;;;;;;;;;;4405188;32;20574;-63
2022/05/22 14:43:53;;;;;;;2.62;1.40;;;;;;;;;;4405743;32;20146;-63
2022/05/22 14:46:39;;;;;;;3.15;1.85;;;;;;;;;;4384151;32;20070;-63
2022/05/22 14:49:36;;;;;;;2.40;1.70;;;;;;;;;;4407132;32;20080;-63
2022/05/22 14:52:17;;;;;;;3.08;1.50;;;;;;;;;;4389860;32;20081;-62
2022/05/22 14:54:47;;;;;;;2.47;1.80;;;;;;;;;;4392842;32;20160;-63
2022/05/22 14:57:21;;;;;;;2.78;1.55;;;;;;;;;;4405974;32;20082;-63
2022/05/22 14:59:54;;;;;;;4.75;1.90;;;;;;;;;;4380218;32;20152;-64
2022/05/22 15:05:06;;;;;;;3.07;1.80;;;;;;;;;;3857314;37;20058;-64
2022/05/22 15:07:33;;;;;;;2.65;1.70;;;;;;;;;;4418611;32;20198;-64
2022/05/22 15:10:05;;;;;;;5.10;1.60;;;;;;;;;;4418419;32;20526;-63
2022/05/22 15:12:35;;;;;;;3.25;2.00;;;;;;;;;;4418287;32;20447;-64
2022/05/22 15:15:03;;;;;;;3.60;2.25;;;;;;;;;;4406452;32;20069;-62
2022/05/22 15:17:36;;;;;;;4.25;2.25;;;;;;;;;;4418629;32;20603;-64
2022/05/22 15:20:14;;;;;;;2.97;1.60;;;;;;;;;;4418439;32;20207;-64
2022/05/22 15:25:54;;;;;;;2.83;1.90;;;;;;;;;;4390430;32;20096;-63
2022/05/22 15:28:20;;;;;;;3.65;1.90;;;;;;;;;;4418302;32;20085;-63
2022/05/22 15:30:53;;;;;;;3.50;1.87;;;;;;;;;;4418414;32;20069;-63
2022/05/22 15:33:25;;;;;;;2.28;1.70;;;;;;;;;;4418332;32;20484;-62
2022/05/22 15:35:57;;;;;;;3.53;2.10;;;;;;;;;;4419963;32;20546;-63
2022/05/22 15:38:27;;;;;;;3.00;1.92;;;;;;;;;;4418519;32;20090;-62
2022/05/22 15:40:59;;;;;;;2.78;1.70;;;;;;;;;;4418196;32;20061;-63
2022/05/22 15:43:30;;;;;;;3.75;2.20;;;;;;;;;;4405140;32;20519;-64